Time;durP1;ratioP1;P1;durP2;ratioP2;P2;SDS_P1;SDS_P2;PMS_P1;PMS_P2;Temp;Humidity;BMP_temperature;BMP_pressure;BME280_temperature;BME280_humidity;BME280_pressure;Samples;Min_cycle;Max_cycle;Signal;HPM_P1;HPM_P2
2023/07/26 00:00:45;;;;;;;3.30;1.83;;;11.20;99.90;;;-144.05;76.65;56940.16;6128154;23;20006;-83
2023/07/26 00:03:11;;;;;;;3.72;1.88;;;11.20;99.90;;;-144.05;77.29;56925.28;6154248;23;20013;-81
2023/07/26 00:05:36;;;;;;;4.07;2.10;;;11.20;99.90;;;-144.05;77.37;56944.41;6127875;23;20428;-83
2023/07/26 00:08:02;;;;;;;6.55;2.00;;;11.20;99.90;;;-144.05;77.95;56938.03;6154373;23;20009;-84
2023/07/26 00:10:28;;;;;;;4.18;1.73;;;11.30;99.90;;;-144.05;77.56;56918.94;6128050;23;20391;-85
2023/07/26 00:12:54;;;;;;;3.58;1.90;;;11.30;99.90;;;-144.05;77.77;56918.94;6128267;23;20013;-84
2023/07/26 00:15:20;;;;;;;3.22;1.95;;;11.30;99.90;;;-144.05;77.95;56918.94;6127946;23;20041;-85
2023/07/26 00:17:46;;;;;;;2.85;1.90;;;11.40;99.90;;;-144.05;77.79;56938.03;6127991;23;20364;-85
2023/07/26 00:20:11;;;;;;;3.63;2.25;;;11.40;99.90;;;-144.05;78.17;56933.78;6128933;23;20143;-82
2023/07/26 00:22:37;;;;;;;5.20;2.45;;;11.40;99.90;;;-144.05;78.14;56925.28;6154333;23;20028;-83
2023/07/26 00:25:04;;;;;;;2.75;1.88;;;11.40;99.90;;;-144.05;78.38;56942.28;6153803;23;20009;-81
2023/07/26 00:27:29;;;;;;;3.75;2.28;;;11.50;99.90;;;-144.05;78.05;56923.19;6127445;23;20032;-82
2023/07/26 00:29:55;;;;;;;3.20;2.03;;;11.50;99.90;;;-144.05;78.12;56908.31;6153747;23;20347;-81
2023/07/26 00:32:21;;;;;;;4.28;2.00;;;11.50;99.90;;;-144.05;77.76;56955.03;6153708;23;20002;-84
2023/07/26 00:34:47;;;;;;;4.18;1.92;;;11.60;99.90;;;-144.05;77.92;56925.28;6128157;23;20024;-84
2023/07/26 00:37:13;;;;;;;3.92;2.40;;;11.60;99.90;;;-144.05;77.83;56918.94;6153826;23;20450;-84
2023/07/26 00:39:39;;;;;;;7.50;2.20;;;11.60;99.90;;;-144.05;78.03;56912.56;6158001;23;20032;-84
2023/07/26 00:42:05;;;;;;;5.05;2.30;;;11.60;99.90;;;-144.05;78.05;56904.06;6183745;23;20446;-87
2023/07/26 00:44:31;;;;;;;7.85;2.40;;;11.60;99.90;;;-144.05;77.98;56942.28;6178538;23;20012;-82
2023/07/26 00:46:57;;;;;;;5.13;2.45;;;11.60;99.90;;;-144.05;77.82;56910.44;6184431;23;19993;-80
2023/07/26 00:49:23;;;;;;;7.18;2.47;;;11.60;99.90;;;-144.05;77.90;56933.78;6184439;23;20009;-81
2023/07/26 00:51:49;;;;;;;4.53;2.28;;;11.60;99.90;;;-144.05;77.95;56944.41;6171522;23;20106;-85
2023/07/26 00:54:21;;;;;;;2.60;1.90;;;11.60;99.90;;;-144.05;77.83;56952.91;6183885;23;20082;-84
2023/07/26 00:56:47;;;;;;;3.03;1.92;;;11.60;99.90;;;-144.05;77.90;56933.78;6183039;23;20020;-84
2023/07/26 00:59:13;;;;;;;3.72;2.22;;;11.60;99.90;;;-144.05;77.88;56933.78;6157522;23;20009;-83
2023/07/26 01:01:39;;;;;;;4.00;1.83;;;11.60;99.90;;;-144.05;77.87;56912.56;6158746;23;20461;-85
2023/07/26 01:04:06;;;;;;;3.92;2.17;;;11.60;99.90;;;-144.05;77.77;56933.78;6158766;23;20426;-84
2023/07/26 01:06:49;;;;;;;3.67;1.83;;;11.60;99.90;;;-144.05;77.73;56929.53;6185106;23;20005;-84
2023/07/26 01:10:17;;;;;;;4.25;2.20;;;11.60;99.90;;;-144.05;77.93;56935.91;6158771;23;20351;-82
2023/07/26 01:13:05;;;;;;;2.55;1.80;;;11.70;99.90;;;-144.05;77.70;56933.78;6184862;23;20091;-84
2023/07/26 01:15:37;;;;;;;4.80;1.85;;;11.70;99.90;;;-144.05;77.73;56921.06;6158319;23;20012;-83
2023/07/26 01:18:12;;;;;;;3.40;1.98;;;11.70;99.90;;;-144.05;77.50;56895.56;6158553;23;20012;-83
2023/07/26 01:20:39;;;;;;;4.43;2.17;;;11.70;99.90;;;-144.05;77.63;56940.16;6158428;23;20005;-84
2023/07/26 01:23:06;;;;;;;5.35;2.58;;;11.90;99.90;;;-144.05;77.38;56927.41;6185207;23;20481;-83
2023/07/26 01:25:33;;;;;;;4.10;2.30;;;11.90;99.90;;;-144.05;77.28;56931.66;6158531;23;20100;-83
2023/07/26 01:27:59;;;;;;;5.85;2.38;;;12.00;99.90;;;-144.05;77.14;56923.19;6185124;23;20005;-81
2023/07/26 01:30:30;;;;;;;4.93;2.22;;;12.00;99.90;;;-144.05;77.09;56914.69;6158419;23;20377;-82
2023/07/26 01:33:03;;;;;;;3.53;2.72;;;12.00;99.90;;;-144.05;77.04;56931.66;6158837;23;20390;-86
2023/07/26 01:35:30;;;;;;;5.03;2.10;;;12.00;99.90;;;-144.05;76.99;56944.41;6158530;23;20017;-82
2023/07/26 01:37:59;;;;;;;4.57;2.40;;;12.00;99.90;;;-144.05;76.95;56942.28;6159079;23;20020;-85
2023/07/26 01:40:26;;;;;;;4.20;2.22;;;12.10;99.90;;;-144.05;76.91;56914.69;6153253;23;20010;-85
2023/07/26 01:42:54;;;;;;;3.95;2.20;;;12.10;99.90;;;-144.05;77.04;56948.66;6153762;23;20037;-85
2023/07/26 01:45:21;;;;;;;5.25;1.92;;;12.10;99.90;;;-144.05;76.94;56929.53;6153297;23;20020;-84
2023/07/26 01:47:48;;;;;;;4.38;2.42;;;12.00;99.90;;;-144.05;77.20;56921.06;6155085;23;20076;-85
2023/07/26 01:50:14;;;;;;;3.97;1.90;;;12.00;99.90;;;-144.05;77.19;56916.81;6153080;23;20021;-84
2023/07/26 01:52:40;;;;;;;3.33;2.15;;;12.00;99.90;;;-144.05;77.09;56927.41;6154987;23;20396;-83
2023/07/26 01:55:07;;;;;;;5.55;2.53;;;11.90;99.90;;;-144.05;77.19;56929.53;6153494;23;20072;-84
2023/07/26 01:57:33;;;;;;;5.47;2.20;;;12.00;99.90;;;-144.05;77.14;56918.94;6155340;23;20007;-83
2023/07/26 01:59:59;;;;;;;7.28;2.95;;;12.00;99.90;;;-144.05;77.47;56925.28;6154415;23;20049;-83
2023/07/26 02:02:25;;;;;;;5.28;2.70;;;11.90;99.90;;;-144.05;77.40;56925.28;6154618;23;20001;-85
2023/07/26 02:04:51;;;;;;;6.13;2.08;;;11.90;99.90;;;-144.05;77.41;56935.91;6154742;23;20049;-83
2023/07/26 02:07:17;;;;;;;2.67;2.08;;;11.90;99.90;;;-144.05;77.36;56912.56;6154944;23;20343;-85
2023/07/26 02:09:43;;;;;;;2.97;1.85;;;11.90;99.90;;;-144.05;77.40;56942.28;6155082;23;20002;-84
2023/07/26 02:12:09;;;;;;;4.07;2.38;;;11.90;99.90;;;-144.05;77.61;56927.41;6153508;23;20415;-84
2023/07/26 02:14:35;;;;;;;8.20;2.83;;;12.00;99.90;;;-144.05;77.39;56925.28;6155324;23;20081;-83
2023/07/26 02:17:01;;;;;;;3.63;2.20;;;12.00;99.90;;;-144.05;77.39;56925.28;6166091;23;20458;-86
2023/07/26 02:19:26;;;;;;;6.30;2.10;;;12.00;99.90;;;-144.05;77.26;56925.28;6161951;23;20026;-81
2023/07/26 02:21:52;;;;;;;7.93;2.58;;;12.00;99.90;;;-144.05;77.06;56908.31;6203923;23;20037;-81
2023/07/26 02:24:18;;;;;;;5.43;2.50;;;12.10;99.90;;;-144.05;77.09;56929.53;6178009;23;20009;-86
2023/07/26 02:26:44;;;;;;;11.18;2.30;;;12.10;99.90;;;-144.05;76.99;56929.53;6167068;23;20029;-87
2023/07/26 02:29:10;;;;;;;4.78;2.30;;;12.10;99.90;;;-144.05;76.96;56918.94;6157749;23;20346;-88
2023/07/26 02:31:36;;;;;;;4.53;2.50;;;12.10;99.90;;;-144.05;76.57;56923.19;6157764;23;20068;-87
2023/07/26 02:34:02;;;;;;;6.53;2.35;;;12.20;99.90;;;-144.05;76.22;56916.81;6158108;23;20005;-88
2023/07/26 02:36:28;;;;;;;4.63;2.42;;;12.20;99.90;;;-144.05;76.46;56925.28;6156130;23;20320;-85
2023/07/26 02:38:54;;;;;;;9.60;3.00;;;12.20;99.90;;;-144.05;76.75;56940.16;6157879;23;20436;-84
2023/07/26 02:41:19;;;;;;;7.50;2.67;;;12.20;99.90;;;-144.05;76.64;56927.41;6154431;23;20017;-86
2023/07/26 02:43:45;;;;;;;5.70;2.95;;;12.30;99.90;;;-144.05;76.75;56933.78;6153691;23;20028;-83
2023/07/26 02:46:11;;;;;;;4.55;2.83;;;12.30;99.90;;;-144.05;76.63;56923.19;6153702;23;20013;-84
2023/07/26 02:48:37;;;;;;;10.05;2.65;;;12.30;99.90;;;-144.05;76.32;56944.41;6155814;23;20016;-88
2023/07/26 02:51:03;;;;;;;9.85;3.50;;;12.30;99.90;;;-144.05;76.34;56916.81;6156194;23;20020;-85
2023/07/26 02:53:28;;;;;;;4.57;2.75;;;12.40;99.90;;;-144.05;76.35;56923.19;6154649;23;20001;-87
2023/07/26 02:55:54;;;;;;;7.07;2.80;;;12.40;99.90;;;-144.05;76.12;56929.53;6156030;23;20005;-87
2023/07/26 02:58:20;;;;;;;4.15;2.40;;;12.50;99.90;;;-144.05;76.44;56921.06;6154349;23;20005;-86
2023/07/26 03:00:52;;;;;;;6.00;3.03;;;12.50;99.90;;;-144.05;76.59;56925.28;6154701;23;20009;-86
2023/07/26 03:03:18;;;;;;;5.45;2.70;;;12.50;99.90;;;-144.05;77.73;56933.78;6156617;23;20073;-83
2023/07/26 03:05:44;;;;;;;8.20;3.40;;;12.40;99.90;;;-144.05;81.44;56912.56;6159180;23;20013;-89
2023/07/26 03:08:09;;;;;;;10.88;3.90;;;12.40;99.90;;;-144.05;81.94;56908.31;6157938;23;20013;-89
2023/07/26 03:10:35;;;;;;;8.52;3.65;;;12.30;99.90;;;-144.05;82.91;56927.41;6160431;23;20009;-90
2023/07/26 03:13:01;;;;;;;11.93;4.50;;;12.20;99.90;;;-144.05;83.72;56921.06;6159878;23;20005;-89
2023/07/26 03:15:27;;;;;;;9.00;4.85;;;12.30;99.90;;;-144.05;84.49;56940.16;6161362;23;20006;-85
2023/07/26 03:17:53;;;;;;;6.20;3.60;;;12.10;99.90;;;-144.05;84.64;56895.56;6158527;23;20005;-89
2023/07/26 03:20:19;;;;;;;4.78;3.05;;;12.10;99.90;;;-144.05;83.91;56938.03;6157638;23;20049;-86
2023/07/26 03:22:45;;;;;;;4.30;2.90;;;12.00;99.90;;;-144.05;84.01;56929.53;6158141;23;20002;-89
2023/07/26 03:25:10;;;;;;;4.72;2.95;;;12.00;99.90;;;-144.05;84.06;56938.03;6161470;23;20053;-86
2023/07/26 03:27:36;;;;;;;5.57;2.95;;;11.90;99.90;;;-144.05;84.16;56933.78;6158156;23;20001;-85
2023/07/26 03:30:03;;;;;;;3.60;2.40;;;11.90;99.90;;;-144.05;83.86;56895.56;6152845;23;20009;-85
2023/07/26 03:32:29;;;;;;;4.00;2.58;;;11.90;99.90;;;-144.05;84.01;56925.28;6152574;23;20099;-84
2023/07/26 03:34:55;;;;;;;2.88;2.13;;;11.90;99.90;;;-144.05;84.15;56946.53;6152440;23;20391;-83
2023/07/26 03:37:21;;;;;;;2.80;2.50;;;11.90;99.90;;;-144.05;84.09;56933.78;6154172;23;20093;-83
2023/07/26 03:39:47;;;;;;;2.80;2.28;;;11.90;99.90;;;-144.05;84.79;56914.69;6152546;23;20063;-84
2023/07/26 03:42:12;;;;;;;4.35;3.25;;;11.90;99.90;;;-144.05;85.19;56931.66;6154242;23;20092;-83
2023/07/26 03:44:38;;;;;;;6.72;3.38;;;11.80;99.90;;;-144.05;85.37;56944.41;6155567;23;20006;-85
2023/07/26 03:47:05;;;;;;;7.43;3.55;;;11.70;99.90;;;-144.05;86.22;56925.28;6156544;23;20029;-86
2023/07/26 03:49:30;;;;;;;6.05;3.50;;;11.70;99.90;;;-144.05;86.40;56942.28;6157685;23;20012;-87
2023/07/26 03:51:56;;;;;;;7.57;3.58;;;11.70;99.90;;;-144.05;86.54;56908.31;6157093;23;20320;-85
2023/07/26 03:54:22;;;;;;;7.65;4.20;;;11.70;99.90;;;-144.05;86.22;56938.03;6154550;23;20014;-84
2023/07/26 03:56:48;;;;;;;7.60;4.28;;;11.60;99.90;;;-144.05;86.49;56927.41;6155797;23;20009;-85
2023/07/26 03:59:14;;;;;;;9.13;4.50;;;11.60;99.90;;;-144.05;86.80;56921.06;6154658;23;20014;-83
2023/07/26 04:01:40;;;;;;;7.57;4.30;;;11.60;99.90;;;-144.05;86.92;56942.28;6155374;23;20084;-84
2023/07/26 04:04:05;;;;;;;8.00;4.72;;;11.70;99.90;;;-144.05;86.95;56950.78;6154997;23;20009;-84
2023/07/26 04:06:31;;;;;;;6.68;4.50;;;11.70;99.90;;;-144.05;86.97;56927.41;6155993;23;20017;-86
2023/07/26 04:08:57;;;;;;;8.25;3.80;;;11.70;99.90;;;-144.05;86.75;56925.28;6155690;23;20009;-84
2023/07/26 04:11:23;;;;;;;4.43;3.40;;;11.70;99.90;;;-144.05;86.60;56935.91;6154898;23;20005;-84
2023/07/26 04:13:49;;;;;;;9.93;4.82;;;11.70;99.90;;;-144.05;86.37;56942.28;6153395;23;20018;-86
2023/07/26 04:16:21;;;;;;;8.73;4.57;;;11.80;99.90;;;-144.05;86.55;56944.41;6154390;23;20033;-85
2023/07/26 04:18:47;;;;;;;4.82;3.80;;;11.80;99.90;;;-144.05;86.77;56942.28;6155192;23;20033;-87
2023/07/26 04:21:19;;;;;;;8.50;4.90;;;11.90;99.90;;;-144.05;87.20;56948.66;6155524;23;20033;-86
2023/07/26 04:23:46;;;;;;;7.05;3.83;;;11.90;99.90;;;-144.05;87.68;56914.69;6156857;23;20005;-88
2023/07/26 04:26:13;;;;;;;6.60;4.03;;;11.90;99.90;;;-144.05;87.43;56891.31;6155283;23;20037;-85
2023/07/26 04:28:39;;;;;;;8.23;4.55;;;11.90;99.90;;;-144.05;87.90;56908.31;6154801;23;20041;-86
2023/07/26 04:31:05;;;;;;;8.45;5.03;;;11.90;99.90;;;-144.05;88.48;56931.66;6154086;23;20014;-84
2023/07/26 04:33:32;;;;;;;7.78;4.97;;;11.80;99.90;;;-144.05;88.11;56948.66;6153628;23;20188;-86
2023/07/26 04:35:58;;;;;;;9.52;5.30;;;11.80;99.90;;;-144.05;88.61;56923.19;6155389;23;20455;-87
2023/07/26 04:38:25;;;;;;;11.43;5.68;;;11.80;99.90;;;-144.05;88.82;56942.28;6160456;23;20010;-86
2023/07/26 04:40:52;;;;;;;9.52;5.70;;;11.80;99.90;;;-144.05;89.95;56931.66;6198733;23;20005;-81
2023/07/26 04:43:20;;;;;;;8.38;5.47;;;11.80;99.90;;;-144.05;89.74;56938.03;6183831;23;20016;-84
2023/07/26 04:45:49;;;;;;;9.18;5.32;;;11.80;99.90;;;-144.05;90.16;56927.41;6183895;23;20041;-85
2023/07/26 04:48:18;;;;;;;8.40;5.80;;;11.80;99.90;;;-144.05;90.69;56923.19;6206707;23;20012;-87
2023/07/26 04:50:46;;;;;;;10.55;6.35;;;11.80;99.90;;;-144.05;91.03;56929.53;6168302;23;20447;-87
2023/07/26 04:53:12;;;;;;;12.23;7.15;;;11.90;99.90;;;-144.05;91.84;56904.06;6167070;23;20064;-85
2023/07/26 04:55:49;;;;;;;12.82;7.30;;;11.90;99.90;;;-144.05;91.44;56946.53;6160423;23;20091;-86
2023/07/26 04:58:16;;;;;;;10.43;7.68;;;12.00;99.90;;;-144.05;91.18;56929.53;6161368;23;20009;-86
2023/07/26 05:00:43;;;;;;;12.80;7.00;;;12.10;99.90;;;-144.05;90.67;56929.53;6160674;23;20005;-84
2023/07/26 05:03:10;;;;;;;8.65;6.72;;;12.10;99.90;;;-144.05;90.55;56935.91;6160915;23;20008;-86
2023/07/26 05:05:37;;;;;;;12.48;7.75;;;12.00;99.90;;;-144.05;91.03;56925.28;6187033;23;20009;-85
2023/07/26 05:08:04;;;;;;;15.93;8.00;;;12.10;99.90;;;-144.05;90.60;56923.19;6160732;23;20095;-84
2023/07/26 05:10:31;;;;;;;10.45;7.35;;;12.10;99.90;;;-144.05;90.77;56910.44;6186618;23;20013;-84
2023/07/26 05:12:58;;;;;;;12.95;7.88;;;12.30;99.90;;;-144.05;90.14;56916.81;6188529;23;20005;-86
2023/07/26 05:15:24;;;;;;;14.73;7.60;;;12.30;99.90;;;-144.05;89.82;56927.41;6187835;23;20083;-82
2023/07/26 05:17:53;;;;;;;15.07;7.95;;;12.30;99.90;;;-144.05;89.49;56918.94;6162905;23;20005;-86
2023/07/26 05:20:19;;;;;;;13.48;7.45;;;12.40;99.90;;;-144.05;89.13;56916.81;6164955;23;20005;-88
2023/07/26 05:22:45;;;;;;;10.07;7.20;;;12.40;99.90;;;-144.05;88.98;56935.91;6188423;23;20012;-85
2023/07/26 05:25:11;;;;;;;10.25;7.35;;;12.50;99.90;;;-144.05;88.83;56955.03;6159882;23;20009;-86
2023/07/26 05:27:36;;;;;;;10.27;7.45;;;12.50;99.90;;;-144.05;88.90;56929.53;6187509;23;20005;-85
2023/07/26 05:30:03;;;;;;;14.35;7.40;;;12.50;99.90;;;-144.05;88.91;56925.28;6164616;23;20461;-86
2023/07/26 05:32:29;;;;;;;10.07;6.70;;;12.50;99.90;;;-144.05;89.84;56944.41;6188409;23;20505;-85
2023/07/26 05:34:57;;;;;;;9.27;6.60;;;12.50;99.90;;;-144.05;88.75;56935.91;6161603;23;20005;-84
2023/07/26 05:37:24;;;;;;;10.73;7.28;;;12.60;99.90;;;-144.05;88.83;56929.53;6163409;23;20049;-87
2023/07/26 05:39:52;;;;;;;8.90;7.00;;;12.60;99.90;;;-144.05;88.31;56904.06;6155548;23;20009;-87
2023/07/26 05:42:18;;;;;;;9.02;6.60;;;12.70;99.90;;;-144.05;88.21;56925.28;6157486;23;20005;-86
2023/07/26 05:44:45;;;;;;;9.98;6.57;;;12.70;99.90;;;-144.05;87.84;56933.78;6157972;23;20052;-84
2023/07/26 05:47:14;;;;;;;9.23;5.90;;;12.70;99.90;;;-144.05;87.00;56923.19;6159205;23;20010;-83
2023/07/26 05:49:44;;;;;;;10.48;5.32;;;12.70;99.90;;;-144.05;86.69;56912.56;6157776;23;20064;-86
2023/07/26 05:52:11;;;;;;;8.25;4.85;;;12.70;99.90;;;-144.05;86.07;56946.53;6157997;23;20010;-86
2023/07/26 05:54:36;;;;;;;7.97;4.40;;;12.80;99.90;;;-144.05;86.42;56938.03;6158020;23;20526;-88
2023/07/26 05:57:03;;;;;;;9.25;4.55;;;12.70;99.90;;;-144.05;85.55;56942.28;6156541;23;20013;-86
2023/07/26 05:59:29;;;;;;;5.88;4.55;;;12.80;99.90;;;-144.05;85.30;56901.94;6158365;23;19997;-83
2023/07/26 06:01:55;;;;;;;7.25;4.32;;;12.90;99.90;;;-144.05;83.51;56929.53;6155623;23;20014;-82
2023/07/26 06:04:20;;;;;;;6.15;4.00;;;13.10;99.90;;;-144.05;81.92;56918.94;6156820;23;20344;-87
2023/07/26 06:06:46;;;;;;;8.18;4.03;;;13.20;99.90;;;-144.05;82.45;56891.31;6157000;23;20080;-88
2023/07/26 06:09:12;;;;;;;5.47;3.50;;;13.60;99.90;;;-144.05;80.40;56908.31;6154849;23;20006;-87
2023/07/26 06:11:39;;;;;;;4.75;3.47;;;13.90;99.90;;;-144.05;78.88;56914.69;6171383;23;20005;-84
2023/07/26 06:14:05;;;;;;;4.93;2.90;;;14.20;99.90;;;-144.05;77.99;56923.19;6176362;23;20008;-79
2023/07/26 06:16:31;;;;;;;7.97;3.00;;;14.40;99.90;;;-144.05;76.13;56906.19;6181190;23;20058;-83
2023/07/26 06:18:57;;;;;;;7.85;2.70;;;14.70;99.90;;;-144.05;74.61;56927.41;6162909;23;20530;-86
2023/07/26 06:21:23;;;;;;;4.90;2.60;;;14.80;99.90;;;-144.05;74.26;56931.66;6158849;23;20076;-85
2023/07/26 06:23:49;;;;;;;4.50;2.50;;;14.90;99.90;;;-144.05;72.78;56904.06;6156954;23;20006;-87
2023/07/26 06:26:15;;;;;;;4.88;2.90;;;15.00;99.90;;;-144.05;72.82;56914.69;6156646;23;20005;-86
2023/07/26 06:28:41;;;;;;;2.55;1.95;;;15.10;99.90;;;-144.05;71.40;56923.19;6158735;23;20010;-86
2023/07/26 06:31:07;;;;;;;4.70;2.50;;;15.10;99.90;;;-144.05;71.98;56938.03;6159771;23;20005;-86
2023/07/26 06:33:33;;;;;;;2.35;2.00;;;15.00;99.90;;;-144.05;71.82;56950.78;6157639;23;20017;-85
2023/07/26 06:35:58;;;;;;;5.85;2.90;;;15.00;99.90;;;-144.05;73.06;56938.03;6158782;23;19997;-82
2023/07/26 06:38:24;;;;;;;4.45;2.58;;;14.80;99.90;;;-144.05;73.04;56910.44;6158218;23;20006;-85
2023/07/26 06:40:50;;;;;;;4.65;2.70;;;14.70;99.90;;;-144.05;72.09;56927.41;6157610;23;20016;-82
2023/07/26 06:43:17;;;;;;;6.40;3.00;;;14.80;99.90;;;-144.05;72.41;56906.19;6161431;23;20014;-82
2023/07/26 06:45:49;;;;;;;4.18;3.00;;;14.80;99.90;;;-144.05;72.33;56935.91;6157940;23;20017;-84
2023/07/26 06:48:14;;;;;;;3.90;2.50;;;14.70;99.90;;;-144.05;73.06;56914.69;6154961;23;20064;-83
2023/07/26 06:50:41;;;;;;;4.20;3.00;;;14.90;99.90;;;-144.05;71.60;56944.41;6154930;23;20427;-82
2023/07/26 06:53:08;;;;;;;3.45;2.22;;;15.20;99.90;;;-144.05;70.84;56931.66;6158864;23;20072;-81
2023/07/26 06:55:35;;;;;;;3.88;2.75;;;15.60;99.90;;;-144.05;69.19;56912.56;6158769;23;20010;-83
2023/07/26 06:58:02;;;;;;;3.97;2.58;;;15.80;99.90;;;-144.05;68.29;56935.91;6157623;23;20009;-85
2023/07/26 07:00:28;;;;;;;5.18;2.65;;;16.00;99.90;;;-144.05;68.18;56921.06;6157182;23;20011;-84
2023/07/26 07:03:00;;;;;;;3.97;2.85;;;16.30;99.90;;;-144.05;67.50;56948.66;6156549;23;20072;-86
2023/07/26 07:05:29;;;;;;;6.95;2.40;;;16.50;99.90;;;-144.05;65.77;56931.66;6154582;23;20071;-84
2023/07/26 07:07:55;;;;;;;3.95;2.47;;;16.50;99.90;;;-144.05;64.58;56921.06;6154790;23;20087;-83
2023/07/26 07:10:22;;;;;;;3.58;2.75;;;16.70;99.90;;;-144.05;63.23;56933.78;6155491;23;20137;-83
2023/07/26 07:12:49;;;;;;;5.63;2.95;;;16.50;99.90;;;-144.05;65.02;56935.91;6153965;23;20016;-85
2023/07/26 07:15:15;;;;;;;5.20;2.90;;;16.40;99.90;;;-144.05;65.41;56946.53;6155862;23;20056;-85
2023/07/26 07:17:41;;;;;;;7.20;3.40;;;16.40;99.90;;;-144.05;65.39;56910.44;6155501;23;20005;-83
2023/07/26 07:20:08;;;;;;;5.93;3.35;;;16.60;99.90;;;-144.05;64.23;56916.81;6154161;23;20014;-82
2023/07/26 07:22:35;;;;;;;4.03;2.65;;;17.00;99.90;;;-144.05;62.53;56925.28;6156521;23;20445;-83
2023/07/26 07:25:02;;;;;;;4.78;2.75;;;17.20;99.90;;;-144.05;61.48;56923.19;6155033;23;20025;-86
2023/07/26 07:27:29;;;;;;;8.48;2.90;;;17.60;99.90;;;-144.05;60.99;56952.91;6154535;23;20009;-83
2023/07/26 07:29:55;;;;;;;5.72;2.75;;;17.70;99.90;;;-144.05;61.15;56935.91;6154868;23;20005;-83
2023/07/26 07:32:21;;;;;;;5.13;3.40;;;17.60;99.90;;;-144.05;61.09;56967.78;6153327;23;20021;-82
2023/07/26 07:34:47;;;;;;;6.72;4.05;;;17.60;99.90;;;-144.05;60.28;56923.19;6153911;23;20447;-85
2023/07/26 07:37:13;;;;;;;4.57;3.47;;;17.50;99.90;;;-144.05;61.45;56929.53;6155590;23;20001;-85
2023/07/26 07:39:39;;;;;;;7.38;4.35;;;17.70;99.90;;;-144.05;61.09;56929.53;6153757;23;20014;-81
2023/07/26 07:42:05;;;;;;;6.70;4.53;;;17.90;99.90;;;-144.05;60.19;56948.66;6183085;23;20009;-82
2023/07/26 07:44:31;;;;;;;7.38;4.80;;;18.00;99.90;;;-144.05;59.44;56942.28;6185104;23;20446;-83
2023/07/26 07:46:57;;;;;;;8.93;4.70;;;17.70;99.90;;;-144.05;59.80;56925.28;6159636;23;20097;-84
2023/07/26 07:49:24;;;;;;;8.13;4.93;;;17.60;99.90;;;-144.05;59.72;56914.69;6159515;23;20049;-82
2023/07/26 07:51:50;;;;;;;8.32;5.03;;;17.70;99.90;;;-144.05;58.65;56935.91;6160454;23;20092;-85
2023/07/26 07:54:16;;;;;;;4.30;3.72;;;18.10;99.90;;;-144.05;57.99;56957.16;6160333;23;20045;-85
2023/07/26 07:56:45;;;;;;;8.52;4.47;;;18.50;99.90;;;-144.05;57.48;56944.41;6186667;23;20058;-80
2023/07/26 07:59:11;;;;;;;7.30;5.10;;;18.70;99.90;;;-144.05;56.65;56957.16;6186230;23;20033;-83
2023/07/26 08:01:37;;;;;;;7.40;5.03;;;18.90;99.90;;;-144.05;56.47;56942.28;6159707;23;20055;-82
2023/07/26 08:04:03;;;;;;;5.80;4.07;;;19.00;99.90;;;-144.05;55.75;56944.41;6185856;23;20080;-85
2023/07/26 08:06:29;;;;;;;7.82;5.47;;;19.40;99.90;;;-144.05;54.66;56952.91;6186118;23;20012;-83
2023/07/26 08:08:56;;;;;;;8.93;5.38;;;19.60;99.90;;;-144.05;54.65;56942.28;6160311;23;20044;-84
2023/07/26 08:11:22;;;;;;;6.15;4.43;;;19.80;99.90;;;-144.05;54.32;56959.28;6162325;23;20005;-87
2023/07/26 08:13:49;;;;;;;8.00;3.97;;;20.00;99.90;;;-144.05;53.68;56978.41;6166879;23;20413;-88
2023/07/26 08:16:15;;;;;;;7.00;4.63;;;20.20;99.90;;;-144.05;53.54;56959.28;6190105;23;20084;-84
2023/07/26 08:18:41;;;;;;;6.13;5.03;;;20.10;99.90;;;-144.05;52.14;56959.28;6186243;23;20106;-80
2023/07/26 08:21:07;;;;;;;6.30;4.80;;;20.20;99.90;;;-144.05;51.12;56969.91;6159596;23;20442;-81
2023/07/26 08:23:33;;;;;;;5.95;4.32;;;20.30;99.90;;;-144.05;51.61;56965.66;6187343;23;20445;-82
2023/07/26 08:26:04;;;;;;;8.35;4.15;;;20.40;99.90;;;-144.05;52.45;56965.66;6186166;23;20011;-83
2023/07/26 08:28:31;;;;;;;8.50;5.00;;;20.50;99.90;;;-144.05;51.50;56959.28;6159786;23;20005;-83
2023/07/26 08:30:57;;;;;;;6.20;4.30;;;20.60;99.90;;;-144.05;50.53;56955.03;6196469;23;20019;-79
2023/07/26 08:33:23;;;;;;;8.45;5.32;;;20.80;99.90;;;-144.05;50.42;56972.03;6181070;23;20021;-82
2023/07/26 08:35:50;;;;;;;8.07;5.10;;;20.60;99.90;;;-144.05;52.01;56984.78;6186693;23;20028;-81
2023/07/26 08:38:15;;;;;;;6.78;4.38;;;20.20;99.90;;;-144.05;50.25;56948.66;6209790;23;19997;-80
2023/07/26 08:40:50;;;;;;;5.90;4.22;;;19.80;99.90;;;-144.05;51.98;56955.03;6210281;23;20072;-79
2023/07/26 08:43:20;;;;;;;8.88;4.35;;;19.40;99.90;;;-144.05;53.61;56933.78;6187563;23;20040;-81
2023/07/26 08:45:47;;;;;;;11.23;4.78;;;19.20;99.90;;;-144.05;53.38;56955.03;6213120;23;20013;-76
2023/07/26 08:48:14;;;;;;;5.40;4.60;;;18.90;99.90;;;-144.05;53.43;56944.41;6212657;23;20012;-78
2023/07/26 08:50:41;;;;;;;8.85;4.80;;;19.20;99.90;;;-144.05;51.90;56963.53;6187709;23;20001;-77
2023/07/26 08:53:08;;;;;;;6.18;4.20;;;19.30;99.90;;;-144.05;51.51;56969.91;6188005;23;20001;-76
2023/07/26 08:55:36;;;;;;;5.75;4.20;;;19.10;99.90;;;-144.05;51.86;56961.41;6187629;23;20024;-79
2023/07/26 08:58:04;;;;;;;12.40;4.28;;;19.30;99.90;;;-144.05;50.14;56944.41;6213315;23;20066;-78
2023/07/26 09:00:31;;;;;;;4.85;3.55;;;19.40;99.90;;;-144.05;50.13;56980.53;6202074;23;20020;-81
2023/07/26 09:03:01;;;;;;;5.35;3.40;;;20.20;99.90;;;-144.05;48.42;56959.28;6158871;23;20017;-84
2023/07/26 09:05:28;;;;;;;4.95;3.67;;;20.10;99.90;;;-144.05;48.56;56959.28;6159496;23;20009;-85
2023/07/26 09:07:54;;;;;;;6.88;3.85;;;19.70;99.90;;;-144.05;48.77;56967.78;6160348;23;20010;-84
2023/07/26 09:10:30;;;;;;;4.38;2.83;;;19.80;99.90;;;-144.05;48.42;56963.53;6159237;23;20012;-85
2023/07/26 09:13:14;;;;;;;;;;;20.20;99.90;;;-144.05;47.07;56969.91;6160837;23;20008;-84
2023/07/26 09:15:43;;;;;;;6.68;3.28;;;20.40;99.90;;;-144.05;44.99;56959.28;6159889;23;20050;-86
2023/07/26 09:18:10;;;;;;;4.53;3.42;;;20.90;99.90;;;-144.05;44.95;56993.25;6159911;23;20016;-85
2023/07/26 09:20:37;;;;;;;6.97;3.38;;;21.00;99.90;;;-144.05;46.24;56982.66;6161316;23;20402;-85
2023/07/26 09:23:06;;;;;;;3.13;2.83;;;21.10;99.90;;;-144.05;44.95;56999.63;6185557;23;20005;-85
2023/07/26 09:25:39;;;;;;;5.20;3.00;;;21.30;99.90;;;-144.05;41.98;56972.03;6168648;23;20016;-83
2023/07/26 09:28:12;;;;;;;4.45;2.70;;;21.20;99.90;;;-144.05;43.06;56984.78;6188059;23;20005;-86
2023/07/26 09:30:48;;;;;;;5.28;3.42;;;21.20;99.90;;;-144.05;44.13;56997.50;6189597;23;20012;-87
2023/07/26 09:33:16;;;;;;;5.38;3.38;;;21.40;99.90;;;-144.05;43.12;56995.38;6160721;23;20009;-86
2023/07/26 09:35:50;;;;;;;5.28;3.15;;;21.10;99.90;;;-144.05;44.38;56980.53;6162258;23;20332;-87
2023/07/26 09:38:23;;;;;;;4.30;3.20;;;20.80;99.90;;;-144.05;44.30;56978.41;6159998;23;20015;-85
2023/07/26 09:40:49;;;;;;;4.28;3.45;;;20.70;99.90;;;-144.05;44.15;57001.75;6186741;23;20035;-81
2023/07/26 09:43:35;;;;;;;5.40;3.40;;;20.70;99.90;;;-144.05;42.74;56989.00;6186806;23;20009;-86
2023/07/26 09:46:04;;;;;;;5.93;3.80;;;20.60;99.90;;;-144.05;43.74;56980.53;6191749;23;20009;-85
2023/07/26 09:48:30;;;;;;;4.10;3.55;;;20.50;99.90;;;-144.05;43.77;56980.53;6189690;23;20009;-84
2023/07/26 09:51:07;;;;;;;4.78;3.60;;;20.30;99.90;;;-144.05;44.26;56991.13;6159950;23;20400;-85
2023/07/26 09:53:36;;;;;;;6.05;4.35;;;19.90;99.90;;;-144.05;45.99;56967.78;6158968;23;20005;-85
2023/07/26 09:56:04;;;;;;;7.78;4.78;;;19.50;99.90;;;-144.05;48.56;56967.78;6159669;23;20071;-83
2023/07/26 09:58:35;;;;;;;10.00;6.00;;;19.10;99.90;;;-144.05;56.31;56961.41;6186618;23;20005;-84
2023/07/26 10:01:03;;;;;;;14.20;5.93;;;18.30;99.90;;;-144.05;58.75;56938.03;6187319;23;20457;-83
2023/07/26 10:03:35;;;;;;;4.63;2.40;;;17.40;99.90;;;-144.05;56.76;56974.16;6187350;23;20419;-83
2023/07/26 10:06:01;;;;;;;4.32;2.22;;;15.50;99.90;;;-144.05;61.24;56925.28;6160663;23;20044;-86